sensor_id;sensor_type;location;lat;lon;timestamp;temperature;humidity
4962;DHT22;2496;52.468;13.342;2023-04-01T00:01:47;10.40;99.90
4962;DHT22;2496;52.468;13.342;2023-04-01T00:04:14;10.40;99.90
4962;DHT22;2496;52.468;13.342;2023-04-01T00:06:42;10.40;99.90
4962;DHT22;2496;52.468;13.342;2023-04-01T00:09:09;10.40;99.90
4962;DHT22;2496;52.468;13.342;2023-04-01T00:11:36;10.40;99.90
4962;DHT22;2496;52.468;13.342;2023-04-01T00:14:04;10.40;99.90
4962;DHT22;2496;52.468;13.342;2023-04-01T00:16:31;10.40;99.90
4962;DHT22;2496;52.468;13.342;2023-04-01T00:18:58;10.40;99.90
4962;DHT22;2496;52.468;13.342;2023-04-01T00:21:26;10.40;99.90
4962;DHT22;2496;52.468;13.342;2023-04-01T00:23:53;10.40;99.90
4962;DHT22;2496;52.468;13.342;2023-04-01T00:26:20;10.40;99.90
4962;DHT22;2496;52.468;13.342;2023-04-01T00:28:48;10.40;99.90
4962;DHT22;2496;52.468;13.342;2023-04-01T00:31:16;10.40;99.90
4962;DHT22;2496;52.468;13.342;2023-04-01T00:33:43;10.40;99.90
4962;DHT22;2496;52.468;13.342;2023-04-01T00:36:12;10.40;99.90
4962;DHT22;2496;52.468;13.342;2023-04-01T00:38:39;10.40;99.90
4962;DHT22;2496;52.468;13.342;2023-04-01T00:41:07;10.40;99.90
4962;DHT22;2496;52.468;13.342;2023-04-01T00:43:34;10.40;99.90
4962;DHT22;2496;52.468;13.342;2023-04-01T00:46:01;10.40;99.90
4962;DHT22;2496;52.468;13.342;2023-04-01T00:48:32;10.40;99.90
4962;DHT22;2496;52.468;13.342;2023-04-01T00:51:01;10.40;99.90
4962;DHT22;2496;52.468;13.342;2023-04-01T00:53:32;10.40;99.90
4962;DHT22;2496;52.468;13.342;2023-04-01T00:56:02;10.40;99.90
4962;DHT22;2496;52.468;13.342;2023-04-01T00:58:34;10.40;99.90
4962;DHT22;2496;52.468;13.342;2023-04-01T01:01:02;10.30;99.90
4962;DHT22;2496;52.468;13.342;2023-04-01T01:03:30;10.40;99.90
4962;DHT22;2496;52.468;13.342;2023-04-01T01:06:08;10.30;99.90
4962;DHT22;2496;52.468;13.342;2023-04-01T01:09:01;10.30;99.90
4962;DHT22;2496;52.468;13.342;2023-04-01T01:11:37;10.40;99.90
4962;DHT22;2496;52.468;13.342;2023-04-01T01:14:10;10.40;99.90
4962;DHT22;2496;52.468;13.342;2023-04-01T01:16:42;10.40;99.90
4962;DHT22;2496;52.468;13.342;2023-04-01T01:19:23;10.40;99.90
4962;DHT22;2496;52.468;13.342;2023-04-01T01:22:05;10.30;99.90
4962;DHT22;2496;52.468;13.342;2023-04-01T01:24:43;10.30;99.90
4962;DHT22;2496;52.468;13.342;2023-04-01T01:27:16;10.30;99.90
4962;DHT22;2496;52.468;13.342;2023-04-01T01:33:15;10.30;99.90
4962;DHT22;2496;52.468;13.342;2023-04-01T01:35:46;10.30;99.90
4962;DHT22;2496;52.468;13.342;2023-04-01T01:38:17;10.30;99.90
4962;DHT22;2496;52.468;13.342;2023-04-01T01:40:48;10.40;99.90
4962;DHT22;2496;52.468;13.342;2023-04-01T01:43:20;10.40;99.90
4962;DHT22;2496;52.468;13.342;2023-04-01T01:45:50;10.40;99.90
4962;DHT22;2496;52.468;13.342;2023-04-01T01:48:19;10.40;99.90
4962;DHT22;2496;52.468;13.342;2023-04-01T01:50:48;10.40;99.90
4962;DHT22;2496;52.468;13.342;2023-04-01T01:53:16;10.40;99.90
4962;DHT22;2496;52.468;13.342;2023-04-01T01:55:44;10.40;99.90
4962;DHT22;2496;52.468;13.342;2023-04-01T01:58:16;10.40;99.90
4962;DHT22;2496;52.468;13.342;2023-04-01T02:00:45;10.40;99.90
4962;DHT22;2496;52.468;13.342;2023-04-01T02:03:13;10.40;99.90
4962;DHT22;2496;52.468;13.342;2023-04-01T02:05:42;10.40;99.90
4962;DHT22;2496;52.468;13.342;2023-04-01T02:08:13;10.40;99.90
4962;DHT22;2496;52.468;13.342;2023-04-01T02:10:45;10.40;99.90
4962;DHT22;2496;52.468;13.342;2023-04-01T02:13:18;10.40;99.90
4962;DHT22;2496;52.468;13.342;2023-04-01T02:15:48;10.40;99.90
4962;DHT22;2496;52.468;13.342;2023-04-01T02:18:18;10.40;99.90
4962;DHT22;2496;52.468;13.342;2023-04-01T02:20:46;10.40;99.90
4962;DHT22;2496;52.468;13.342;2023-04-01T02:23:14;10.40;99.90
4962;DHT22;2496;52.468;13.342;2023-04-01T02:25:42;10.40;99.90
4962;DHT22;2496;52.468;13.342;2023-04-01T02:28:10;10.40;99.90
4962;DHT22;2496;52.468;13.342;2023-04-01T02:30:39;10.40;99.90
4962;DHT22;2496;52.468;13.342;2023-04-01T02:33:08;10.40;99.90
4962;DHT22;2496;52.468;13.342;2023-04-01T02:35:36;10.40;99.90
4962;DHT22;2496;52.468;13.342;2023-04-01T02:38:03;10.40;99.90
4962;DHT22;2496;52.468;13.342;2023-04-01T02:40:43;10.40;99.90
4962;DHT22;2496;52.468;13.342;2023-04-01T02:43:10;10.40;99.90
4962;DHT22;2496;52.468;13.342;2023-04-01T02:45:37;10.40;99.90
4962;DHT22;2496;52.468;13.342;2023-04-01T02:48:05;10.40;99.90
4962;DHT22;2496;52.468;13.342;2023-04-01T02:50:32;10.30;99.90
4962;DHT22;2496;52.468;13.342;2023-04-01T02:53:00;10.30;99.90
4962;DHT22;2496;52.468;13.342;2023-04-01T02:55:28;10.40;99.90
4962;DHT22;2496;52.468;13.342;2023-04-01T02:57:57;10.30;99.90
4962;DHT22;2496;52.468;13.342;2023-04-01T03:00:24;10.30;99.90
4962;DHT22;2496;52.468;13.342;2023-04-01T03:02:51;10.40;99.90
4962;DHT22;2496;52.468;13.342;2023-04-01T03:05:19;10.40;99.90
4962;DHT22;2496;52.468;13.342;2023-04-01T03:07:46;10.40;99.90
4962;DHT22;2496;52.468;13.342;2023-04-01T03:10:14;10.40;99.90
4962;DHT22;2496;52.468;13.342;2023-04-01T03:12:41;10.40;99.90
4962;DHT22;2496;52.468;13.342;2023-04-01T03:15:11;10.40;99.90
4962;DHT22;2496;52.468;13.342;2023-04-01T03:17:40;10.40;99.90
4962;DHT22;2496;52.468;13.342;2023-04-01T03:20:08;10.40;99.90
4962;DHT22;2496;52.468;13.342;2023-04-01T03:22:36;10.40;99.90
4962;DHT22;2496;52.468;13.342;2023-04-01T03:25:04;10.40;99.90
4962;DHT22;2496;52.468;13.342;2023-04-01T03:27:33;10.40;99.90
4962;DHT22;2496;52.468;13.342;2023-04-01T03:30:00;10.40;99.90
4962;DHT22;2496;52.468;13.342;2023-04-01T03:32:28;10.40;99.90
4962;DHT22;2496;52.468;13.342;2023-04-01T03:34:55;10.40;99.90
4962;DHT22;2496;52.468;13.342;2023-04-01T03:37:23;10.40;99.90
4962;DHT22;2496;52.468;13.342;2023-04-01T03:39:50;10.40;99.90
4962;DHT22;2496;52.468;13.342;2023-04-01T03:42:17;10.40;99.90
4962;DHT22;2496;52.468;13.342;2023-04-01T03:44:44;10.40;99.90
4962;DHT22;2496;52.468;13.342;2023-04-01T03:47:11;10.40;99.90
4962;DHT22;2496;52.468;13.342;2023-04-01T03:49:39;10.40;99.90
4962;DHT22;2496;52.468;13.342;2023-04-01T03:52:09;10.40;99.90
4962;DHT22;2496;52.468;13.342;2023-04-01T03:54:36;10.40;99.90
4962;DHT22;2496;52.468;13.342;2023-04-01T03:57:03;10.40;99.90
4962;DHT22;2496;52.468;13.342;2023-04-01T03:59:30;10.40;99.90
4962;DHT22;2496;52.468;13.342;2023-04-01T04:01:57;10.40;99.90
4962;DHT22;2496;52.468;13.342;2023-04-01T04:04:24;10.40;99.90
4962;DHT22;2496;52.468;13.342;2023-04-01T04:06:53;10.40;99.90
4962;DHT22;2496;52.468;13.342;2023-04-01T04:09:20;10.40;99.90
4962;DHT22;2496;52.468;13.342;2023-04-01T04:11:47;10.40;99.90
4962;DHT22;2496;52.468;13.342;2023-04-01T04:14:14;10.40;99.90
4962;DHT22;2496;52.468;13.342;2023-04-01T04:16:41;10.40;99.90
4962;DHT22;2496;52.468;13.342;2023-04-01T04:19:08;10.40;99.90
4962;DHT22;2496;52.468;13.342;2023-04-01T04:21:35;10.40;99.90
4962;DHT22;2496;52.468;13.342;2023-04-01T04:24:04;10.40;99.90
4962;DHT22;2496;52.468;13.342;2023-04-01T04:26:31;10.40;99.90
4962;DHT22;2496;52.468;13.342;2023-04-01T04:28:58;10.40;99.90
4962;DHT22;2496;52.468;13.342;2023-04-01T04:31:26;10.40;99.90
4962;DHT22;2496;52.468;13.342;2023-04-01T04:33:53;10.40;99.90
4962;DHT22;2496;52.468;13.342;2023-04-01T04:36:21;10.40;99.90
4962;DHT22;2496;52.468;13.342;2023-04-01T04:38:48;10.40;99.90
4962;DHT22;2496;52.468;13.342;2023-04-01T04:41:17;10.40;99.90
4962;DHT22;2496;52.468;13.342;2023-04-01T04:43:49;10.40;99.90
4962;DHT22;2496;52.468;13.342;2023-04-01T04:46:16;10.40;99.90
4962;DHT22;2496;52.468;13.342;2023-04-01T04:48:43;10.40;99.90
4962;DHT22;2496;52.468;13.342;2023-04-01T04:51:13;10.40;99.90
4962;DHT22;2496;52.468;13.342;2023-04-01T04:53:40;10.40;99.90
4962;DHT22;2496;52.468;13.342;2023-04-01T04:56:07;10.40;99.90
4962;DHT22;2496;52.468;13.342;2023-04-01T04:58:35;10.40;99.90
4962;DHT22;2496;52.468;13.342;2023-04-01T05:01:06;10.40;99.90
4962;DHT22;2496;52.468;13.342;2023-04-01T05:03:33;10.40;99.90
4962;DHT22;2496;52.468;13.342;2023-04-01T05:06:00;10.40;99.90
4962;DHT22;2496;52.468;13.342;2023-04-01T05:08:27;10.40;99.90
4962;DHT22;2496;52.468;13.342;2023-04-01T05:10:54;10.40;99.90
4962;DHT22;2496;52.468;13.342;2023-04-01T05:13:21;10.40;99.90
4962;DHT22;2496;52.468;13.342;2023-04-01T05:15:50;10.40;99.90
4962;DHT22;2496;52.468;13.342;2023-04-01T05:18:17;10.40;99.90
4962;DHT22;2496;52.468;13.342;2023-04-01T05:20:47;10.40;99.90
4962;DHT22;2496;52.468;13.342;2023-04-01T05:23:14;10.40;99.90
4962;DHT22;2496;52.468;13.342;2023-04-01T05:25:41;10.50;99.90
4962;DHT22;2496;52.468;13.342;2023-04-01T05:28:09;10.50;99.90
4962;DHT22;2496;52.468;13.342;2023-04-01T05:30:36;10.50;99.90
4962;DHT22;2496;52.468;13.342;2023-04-01T05:33:04;10.50;99.90
4962;DHT22;2496;52.468;13.342;2023-04-01T05:35:31;10.50;99.90
4962;DHT22;2496;52.468;13.342;2023-04-01T05:37:58;10.50;99.90
4962;DHT22;2496;52.468;13.342;2023-04-01T05:40:25;10.50;99.90
4962;DHT22;2496;52.468;13.342;2023-04-01T05:42:52;10.50;99.90
4962;DHT22;2496;52.468;13.342;2023-04-01T05:45:19;10.50;99.90
4962;DHT22;2496;52.468;13.342;2023-04-01T05:47:47;10.50;99.90
4962;DHT22;2496;52.468;13.342;2023-04-01T05:50:15;10.50;99.90
4962;DHT22;2496;52.468;13.342;2023-04-01T05:52:42;10.50;99.90
4962;DHT22;2496;52.468;13.342;2023-04-01T05:55:10;10.50;99.90
4962;DHT22;2496;52.468;13.342;2023-04-01T05:57:37;10.50;99.90
4962;DHT22;2496;52.468;13.342;2023-04-01T06:00:05;10.50;99.90
4962;DHT22;2496;52.468;13.342;2023-04-01T06:02:32;10.50;99.90
4962;DHT22;2496;52.468;13.342;2023-04-01T06:05:08;10.50;99.90
4962;DHT22;2496;52.468;13.342;2023-04-01T06:07:38;10.50;99.90
4962;DHT22;2496;52.468;13.342;2023-04-01T06:10:12;10.50;99.90
4962;DHT22;2496;52.468;13.342;2023-04-01T06:12:48;10.50;99.90
4962;DHT22;2496;52.468;13.342;2023-04-01T06:15:25;10.50;99.90
4962;DHT22;2496;52.468;13.342;2023-04-01T06:18:18;10.50;99.90
4962;DHT22;2496;52.468;13.342;2023-04-01T06:20:56;10.50;99.90
4962;DHT22;2496;52.468;13.342;2023-04-01T06:23:45;10.50;99.90
4962;DHT22;2496;52.468;13.342;2023-04-01T06:26:24;10.60;99.90
4962;DHT22;2496;52.468;13.342;2023-04-01T06:32:01;10.60;99.90
4962;DHT22;2496;52.468;13.342;2023-04-01T06:34:56;10.50;99.90
4962;DHT22;2496;52.468;13.342;2023-04-01T06:37:46;10.50;99.90
4962;DHT22;2496;52.468;13.342;2023-04-01T06:40:41;10.50;99.90
4962;DHT22;2496;52.468;13.342;2023-04-01T06:43:17;10.60;99.90
4962;DHT22;2496;52.468;13.342;2023-04-01T06:45:53;10.50;99.90
4962;DHT22;2496;52.468;13.342;2023-04-01T06:48:37;10.50;99.90
4962;DHT22;2496;52.468;13.342;2023-04-01T06:51:14;10.50;99.90
4962;DHT22;2496;52.468;13.342;2023-04-01T06:53:49;10.60;99.90
4962;DHT22;2496;52.468;13.342;2023-04-01T06:56:22;10.60;99.90
4962;DHT22;2496;52.468;13.342;2023-04-01T06:58:53;10.70;99.90
4962;DHT22;2496;52.468;13.342;2023-04-01T07:01:26;10.70;99.90
4962;DHT22;2496;52.468;13.342;2023-04-01T07:03:58;10.70;99.90
4962;DHT22;2496;52.468;13.342;2023-04-01T07:06:28;10.80;99.90
4962;DHT22;2496;52.468;13.342;2023-04-01T07:08:59;10.80;99.90
4962;DHT22;2496;52.468;13.342;2023-04-01T07:11:32;10.90;99.90
4962;DHT22;2496;52.468;13.342;2023-04-01T07:14:03;10.90;99.90
4962;DHT22;2496;52.468;13.342;2023-04-01T07:16:33;11.00;99.90
4962;DHT22;2496;52.468;13.342;2023-04-01T07:19:08;11.00;99.90
4962;DHT22;2496;52.468;13.342;2023-04-01T07:21:41;11.10;99.90
4962;DHT22;2496;52.468;13.342;2023-04-01T07:24:17;11.20;99.90
4962;DHT22;2496;52.468;13.342;2023-04-01T07:26:53;11.20;99.90
4962;DHT22;2496;52.468;13.342;2023-04-01T07:29:21;11.30;99.90
4962;DHT22;2496;52.468;13.342;2023-04-01T07:32:14;11.30;99.90
4962;DHT22;2496;52.468;13.342;2023-04-01T07:34:55;11.30;99.90
4962;DHT22;2496;52.468;13.342;2023-04-01T07:37:30;11.40;99.90
4962;DHT22;2496;52.468;13.342;2023-04-01T07:40:07;11.40;99.90
4962;DHT22;2496;52.468;13.342;2023-04-01T07:42:51;11.50;99.90
4962;DHT22;2496;52.468;13.342;2023-04-01T07:45:24;11.50;99.90
4962;DHT22;2496;52.468;13.342;2023-04-01T07:48:06;11.50;99.90
4962;DHT22;2496;52.468;13.342;2023-04-01T07:50:40;11.50;99.90
4962;DHT22;2496;52.468;13.342;2023-04-01T07:53:13;11.50;99.90
4962;DHT22;2496;52.468;13.342;2023-04-01T07:55:46;11.50;99.90
4962;DHT22;2496;52.468;13.342;2023-04-01T07:58:23;11.60;99.90
4962;DHT22;2496;52.468;13.342;2023-04-01T08:00:59;11.60;99.90
4962;DHT22;2496;52.468;13.342;2023-04-01T08:03:43;11.60;99.90
4962;DHT22;2496;52.468;13.342;2023-04-01T08:06:22;11.70;99.90
4962;DHT22;2496;52.468;13.342;2023-04-01T08:08:59;11.80;99.90
4962;DHT22;2496;52.468;13.342;2023-04-01T08:11:42;11.80;99.90
4962;DHT22;2496;52.468;13.342;2023-04-01T08:14:25;11.90;99.90
4962;DHT22;2496;52.468;13.342;2023-04-01T08:17:01;11.90;99.90
4962;DHT22;2496;52.468;13.342;2023-04-01T08:19:38;11.90;99.90
4962;DHT22;2496;52.468;13.342;2023-04-01T08:22:16;11.80;99.90
4962;DHT22;2496;52.468;13.342;2023-04-01T08:24:48;11.90;99.90
4962;DHT22;2496;52.468;13.342;2023-04-01T08:27:23;11.80;99.90
4962;DHT22;2496;52.468;13.342;2023-04-01T08:29:57;11.90;99.90
4962;DHT22;2496;52.468;13.342;2023-04-01T08:32:28;11.90;99.90
4962;DHT22;2496;52.468;13.342;2023-04-01T08:35:08;11.90;99.90
4962;DHT22;2496;52.468;13.342;2023-04-01T08:37:39;12.00;99.90
4962;DHT22;2496;52.468;13.342;2023-04-01T08:40:39;12.00;99.90
4962;DHT22;2496;52.468;13.342;2023-04-01T08:43:11;11.90;99.90
4962;DHT22;2496;52.468;13.342;2023-04-01T08:46:12;11.90;99.90
4962;DHT22;2496;52.468;13.342;2023-04-01T08:48:57;11.80;99.90
4962;DHT22;2496;52.468;13.342;2023-04-01T08:51:48;11.70;99.90
4962;DHT22;2496;52.468;13.342;2023-04-01T08:54:37;11.60;99.90
4962;DHT22;2496;52.468;13.342;2023-04-01T08:57:15;11.40;99.90
4962;DHT22;2496;52.468;13.342;2023-04-01T08:59:50;11.30;99.90
4962;DHT22;2496;52.468;13.342;2023-04-01T09:05:57;11.20;99.90
4962;DHT22;2496;52.468;13.342;2023-04-01T09:08:43;11.10;99.90
4962;DHT22;2496;52.468;13.342;2023-04-01T09:11:25;10.90;99.90
4962;DHT22;2496;52.468;13.342;2023-04-01T09:14:16;10.70;99.90
4962;DHT22;2496;52.468;13.342;2023-04-01T09:17:09;10.60;99.90
4962;DHT22;2496;52.468;13.342;2023-04-01T09:19:54;10.50;99.90
4962;DHT22;2496;52.468;13.342;2023-04-01T09:22:42;10.40;99.90
4962;DHT22;2496;52.468;13.342;2023-04-01T09:25:38;10.40;99.90
4962;DHT22;2496;52.468;13.342;2023-04-01T09:28:11;10.30;99.90
4962;DHT22;2496;52.468;13.342;2023-04-01T09:30:59;10.20;99.90
4962;DHT22;2496;52.468;13.342;2023-04-01T09:36:38;10.10;99.90
4962;DHT22;2496;52.468;13.342;2023-04-01T09:39:24;10.10;99.90
4962;DHT22;2496;52.468;13.342;2023-04-01T09:42:08;10.00;99.90
4962;DHT22;2496;52.468;13.342;2023-04-01T09:44:45;10.00;99.90
4962;DHT22;2496;52.468;13.342;2023-04-01T09:47:25;10.00;99.90
4962;DHT22;2496;52.468;13.342;2023-04-01T09:50:14;9.90;99.90
4962;DHT22;2496;52.468;13.342;2023-04-01T09:52:51;9.80;99.90
4962;DHT22;2496;52.468;13.342;2023-04-01T09:55:55;9.80;99.90
4962;DHT22;2496;52.468;13.342;2023-04-01T09:58:47;9.70;99.90
4962;DHT22;2496;52.468;13.342;2023-04-01T10:01:39;9.70;99.90
4962;DHT22;2496;52.468;13.342;2023-04-01T10:04:40;9.60;99.90
4962;DHT22;2496;52.468;13.342;2023-04-01T10:10:55;9.60;99.90
4962;DHT22;2496;52.468;13.342;2023-04-01T10:13:45;9.60;99.90
4962;DHT22;2496;52.468;13.342;2023-04-01T10:16:40;9.60;99.90
4962;DHT22;2496;52.468;13.342;2023-04-01T10:19:49;9.70;99.90
4962;DHT22;2496;52.468;13.342;2023-04-01T10:22:36;9.70;99.90
4962;DHT22;2496;52.468;13.342;2023-04-01T10:25:29;9.70;99.90
4962;DHT22;2496;52.468;13.342;2023-04-01T10:28:23;9.70;99.90
4962;DHT22;2496;52.468;13.342;2023-04-01T10:31:34;9.70;99.90
4962;DHT22;2496;52.468;13.342;2023-04-01T10:40:37;9.60;99.90
4962;DHT22;2496;52.468;13.342;2023-04-01T10:46:46;9.60;99.90
4962;DHT22;2496;52.468;13.342;2023-04-01T10:52:22;9.50;99.90
4962;DHT22;2496;52.468;13.342;2023-04-01T10:54:57;9.40;99.90
4962;DHT22;2496;52.468;13.342;2023-04-01T10:58:22;9.40;99.90
4962;DHT22;2496;52.468;13.342;2023-04-01T11:01:19;9.40;99.90
4962;DHT22;2496;52.468;13.342;2023-04-01T11:07:39;9.40;99.90
4962;DHT22;2496;52.468;13.342;2023-04-01T11:10:41;9.50;99.90
4962;DHT22;2496;52.468;13.342;2023-04-01T11:13:54;9.50;99.90
4962;DHT22;2496;52.468;13.342;2023-04-01T11:17:01;9.60;99.90
4962;DHT22;2496;52.468;13.342;2023-04-01T11:20:01;9.60;99.90
4962;DHT22;2496;52.468;13.342;2023-04-01T11:22:52;9.70;99.90
4962;DHT22;2496;52.468;13.342;2023-04-01T11:25:36;9.70;99.90
4962;DHT22;2496;52.468;13.342;2023-04-01T11:28:35;9.60;99.90
4962;DHT22;2496;52.468;13.342;2023-04-01T11:31:22;9.70;99.90
4962;DHT22;2496;52.468;13.342;2023-04-01T11:33:57;9.70;99.90
4962;DHT22;2496;52.468;13.342;2023-04-01T11:36:35;9.70;99.90
4962;DHT22;2496;52.468;13.342;2023-04-01T11:39:21;9.70;99.90
4962;DHT22;2496;52.468;13.342;2023-04-01T11:41:56;9.60;99.90
4962;DHT22;2496;52.468;13.342;2023-04-01T11:44:29;9.60;99.90
4962;DHT22;2496;52.468;13.342;2023-04-01T11:47:21;9.50;99.90
4962;DHT22;2496;52.468;13.342;2023-04-01T11:50:03;9.50;99.90
4962;DHT22;2496;52.468;13.342;2023-04-01T11:52:51;9.50;99.90
4962;DHT22;2496;52.468;13.342;2023-04-01T11:55:31;9.40;99.90
4962;DHT22;2496;52.468;13.342;2023-04-01T11:58:36;9.50;99.90
4962;DHT22;2496;52.468;13.342;2023-04-01T12:01:17;9.50;99.90
4962;DHT22;2496;52.468;13.342;2023-04-01T12:06:52;9.30;99.90
4962;DHT22;2496;52.468;13.342;2023-04-01T12:09:33;9.20;99.90
4962;DHT22;2496;52.468;13.342;2023-04-01T12:12:13;9.20;99.90
4962;DHT22;2496;52.468;13.342;2023-04-01T12:14:46;9.20;99.90
4962;DHT22;2496;52.468;13.342;2023-04-01T12:17:29;9.10;99.90
4962;DHT22;2496;52.468;13.342;2023-04-01T12:20:05;9.10;99.90
4962;DHT22;2496;52.468;13.342;2023-04-01T12:22:45;9.00;99.90
4962;DHT22;2496;52.468;13.342;2023-04-01T12:25:22;9.00;99.90
4962;DHT22;2496;52.468;13.342;2023-04-01T12:28:01;9.00;99.90
4962;DHT22;2496;52.468;13.342;2023-04-01T12:30:48;9.00;99.90
4962;DHT22;2496;52.468;13.342;2023-04-01T12:33:41;9.00;99.90
4962;DHT22;2496;52.468;13.342;2023-04-01T12:36:20;9.00;99.90
4962;DHT22;2496;52.468;13.342;2023-04-01T12:39:08;8.90;99.90
4962;DHT22;2496;52.468;13.342;2023-04-01T12:41:47;8.90;99.90
4962;DHT22;2496;52.468;13.342;2023-04-01T12:44:28;8.90;99.90
4962;DHT22;2496;52.468;13.342;2023-04-01T12:47:26;8.80;99.90
4962;DHT22;2496;52.468;13.342;2023-04-01T12:50:29;8.80;99.90
4962;DHT22;2496;52.468;13.342;2023-04-01T12:53:17;8.80;99.90
4962;DHT22;2496;52.468;13.342;2023-04-01T12:55:45;8.80;99.90
4962;DHT22;2496;52.468;13.342;2023-04-01T12:58:37;8.90;99.90
4962;DHT22;2496;52.468;13.342;2023-04-01T13:01:28;8.80;99.90
4962;DHT22;2496;52.468;13.342;2023-04-01T13:04:26;8.80;99.90
4962;DHT22;2496;52.468;13.342;2023-04-01T13:07:16;8.70;99.90
4962;DHT22;2496;52.468;13.342;2023-04-01T13:09:53;8.80;99.90
4962;DHT22;2496;52.468;13.342;2023-04-01T13:12:45;8.70;99.90
4962;DHT22;2496;52.468;13.342;2023-04-01T13:15:24;8.70;99.90
4962;DHT22;2496;52.468;13.342;2023-04-01T13:17:56;8.70;99.90
4962;DHT22;2496;52.468;13.342;2023-04-01T13:20:33;8.70;99.90
4962;DHT22;2496;52.468;13.342;2023-04-01T13:23:22;8.80;99.90
4962;DHT22;2496;52.468;13.342;2023-04-01T13:25:58;8.70;99.90
4962;DHT22;2496;52.468;13.342;2023-04-01T13:28:29;8.80;99.90
4962;DHT22;2496;52.468;13.342;2023-04-01T13:31:02;8.80;99.90
4962;DHT22;2496;52.468;13.342;2023-04-01T13:33:34;8.80;99.90
4962;DHT22;2496;52.468;13.342;2023-04-01T13:36:15;8.70;99.90
4962;DHT22;2496;52.468;13.342;2023-04-01T13:39:17;8.70;99.90
4962;DHT22;2496;52.468;13.342;2023-04-01T13:41:57;8.70;99.90
4962;DHT22;2496;52.468;13.342;2023-04-01T13:44:30;8.60;99.90
4962;DHT22;2496;52.468;13.342;2023-04-01T13:47:34;8.60;99.90
4962;DHT22;2496;52.468;13.342;2023-04-01T13:50:23;8.60;99.90
4962;DHT22;2496;52.468;13.342;2023-04-01T13:53:11;8.60;99.90
4962;DHT22;2496;52.468;13.342;2023-04-01T13:55:59;8.60;99.90
4962;DHT22;2496;52.468;13.342;2023-04-01T13:58:42;8.50;99.90
4962;DHT22;2496;52.468;13.342;2023-04-01T14:01:15;8.50;99.90
4962;DHT22;2496;52.468;13.342;2023-04-01T14:06:57;8.40;99.90
4962;DHT22;2496;52.468;13.342;2023-04-01T14:09:47;8.40;99.90
4962;DHT22;2496;52.468;13.342;2023-04-01T14:12:29;8.30;99.90
4962;DHT22;2496;52.468;13.342;2023-04-01T14:15:14;8.20;99.90
4962;DHT22;2496;52.468;13.342;2023-04-01T14:17:58;8.20;99.90
4962;DHT22;2496;52.468;13.342;2023-04-01T14:20:37;8.20;99.90
4962;DHT22;2496;52.468;13.342;2023-04-01T14:23:25;8.30;99.90
4962;DHT22;2496;52.468;13.342;2023-04-01T14:29:18;8.30;99.90
4962;DHT22;2496;52.468;13.342;2023-04-01T14:32:04;8.20;99.90
4962;DHT22;2496;52.468;13.342;2023-04-01T14:34:50;8.20;99.90
4962;DHT22;2496;52.468;13.342;2023-04-01T14:37:40;8.20;99.90
4962;DHT22;2496;52.468;13.342;2023-04-01T14:40:26;8.10;99.90
4962;DHT22;2496;52.468;13.342;2023-04-01T14:46:19;8.10;99.90
4962;DHT22;2496;52.468;13.342;2023-04-01T14:48:57;8.10;99.90
4962;DHT22;2496;52.468;13.342;2023-04-01T14:51:31;8.00;99.90
4962;DHT22;2496;52.468;13.342;2023-04-01T14:54:04;8.00;99.90
4962;DHT22;2496;52.468;13.342;2023-04-01T14:56:42;8.00;99.90
4962;DHT22;2496;52.468;13.342;2023-04-01T14:59:14;7.90;99.90
4962;DHT22;2496;52.468;13.342;2023-04-01T15:01:47;7.90;99.90
4962;DHT22;2496;52.468;13.342;2023-04-01T15:04:40;7.90;99.90
4962;DHT22;2496;52.468;13.342;2023-04-01T15:10:12;7.90;99.90
4962;DHT22;2496;52.468;13.342;2023-04-01T15:12:52;7.90;99.90
4962;DHT22;2496;52.468;13.342;2023-04-01T15:15:31;7.90;99.90
4962;DHT22;2496;52.468;13.342;2023-04-01T15:18:09;7.90;99.90
4962;DHT22;2496;52.468;13.342;2023-04-01T15:20:56;7.80;99.90
4962;DHT22;2496;52.468;13.342;2023-04-01T15:23:37;7.80;99.90
4962;DHT22;2496;52.468;13.342;2023-04-01T15:26:47;7.80;99.90
4962;DHT22;2496;52.468;13.342;2023-04-01T15:29:45;7.80;99.90
4962;DHT22;2496;52.468;13.342;2023-04-01T15:32:18;7.70;99.90
4962;DHT22;2496;52.468;13.342;2023-04-01T15:34:52;7.70;99.90
4962;DHT22;2496;52.468;13.342;2023-04-01T15:37:34;7.70;99.90
4962;DHT22;2496;52.468;13.342;2023-04-01T15:40:15;7.60;99.90
4962;DHT22;2496;52.468;13.342;2023-04-01T15:42:55;7.60;99.90
4962;DHT22;2496;52.468;13.342;2023-04-01T15:45:40;7.60;99.90
4962;DHT22;2496;52.468;13.342;2023-04-01T15:48:29;7.60;99.90
4962;DHT22;2496;52.468;13.342;2023-04-01T15:51:15;7.50;99.90
4962;DHT22;2496;52.468;13.342;2023-04-01T15:53:58;7.50;99.90
4962;DHT22;2496;52.468;13.342;2023-04-01T15:56:48;7.50;99.90
4962;DHT22;2496;52.468;13.342;2023-04-01T15:59:41;7.50;99.90
4962;DHT22;2496;52.468;13.342;2023-04-01T16:02:16;7.50;99.90
4962;DHT22;2496;52.468;13.342;2023-04-01T16:04:54;7.50;99.90
4962;DHT22;2496;52.468;13.342;2023-04-01T16:07:48;7.50;99.90
4962;DHT22;2496;52.468;13.342;2023-04-01T16:10:49;7.40;99.90
4962;DHT22;2496;52.468;13.342;2023-04-01T16:13:25;7.50;99.90
4962;DHT22;2496;52.468;13.342;2023-04-01T16:16:02;7.50;99.90
4962;DHT22;2496;52.468;13.342;2023-04-01T16:18:44;7.50;99.90
4962;DHT22;2496;52.468;13.342;2023-04-01T16:21:32;7.60;99.90
4962;DHT22;2496;52.468;13.342;2023-04-01T16:24:08;7.60;99.90
4962;DHT22;2496;52.468;13.342;2023-04-01T16:26:44;7.50;99.90
4962;DHT22;2496;52.468;13.342;2023-04-01T16:29:22;7.50;99.90
4962;DHT22;2496;52.468;13.342;2023-04-01T16:31:54;7.50;99.90
4962;DHT22;2496;52.468;13.342;2023-04-01T16:34:29;7.40;99.90
4962;DHT22;2496;52.468;13.342;2023-04-01T16:37:03;7.40;99.90
4962;DHT22;2496;52.468;13.342;2023-04-01T16:39:41;7.40;99.90
4962;DHT22;2496;52.468;13.342;2023-04-01T16:42:25;7.40;99.90
4962;DHT22;2496;52.468;13.342;2023-04-01T16:44:59;7.30;99.90
4962;DHT22;2496;52.468;13.342;2023-04-01T16:47:30;7.20;99.90
4962;DHT22;2496;52.468;13.342;2023-04-01T16:50:05;7.10;99.90
4962;DHT22;2496;52.468;13.342;2023-04-01T16:52:48;7.10;99.90
4962;DHT22;2496;52.468;13.342;2023-04-01T16:55:21;7.00;99.90
4962;DHT22;2496;52.468;13.342;2023-04-01T16:57:51;7.00;99.90
4962;DHT22;2496;52.468;13.342;2023-04-01T17:00:26;6.90;99.90
4962;DHT22;2496;52.468;13.342;2023-04-01T17:03:02;6.90;99.90
4962;DHT22;2496;52.468;13.342;2023-04-01T17:05:58;6.90;99.90
4962;DHT22;2496;52.468;13.342;2023-04-01T17:08:40;6.90;99.90
4962;DHT22;2496;52.468;13.342;2023-04-01T17:11:16;6.90;99.90
4962;DHT22;2496;52.468;13.342;2023-04-01T17:13:49;6.80;99.90
4962;DHT22;2496;52.468;13.342;2023-04-01T17:16:41;6.80;99.90
4962;DHT22;2496;52.468;13.342;2023-04-01T17:19:18;6.80;99.90
4962;DHT22;2496;52.468;13.342;2023-04-01T17:21:57;6.70;99.90
4962;DHT22;2496;52.468;13.342;2023-04-01T17:24:45;6.70;99.90
4962;DHT22;2496;52.468;13.342;2023-04-01T17:27:24;6.70;99.90
4962;DHT22;2496;52.468;13.342;2023-04-01T17:30:24;6.70;99.90
4962;DHT22;2496;52.468;13.342;2023-04-01T17:33:12;6.60;99.90
4962;DHT22;2496;52.468;13.342;2023-04-01T17:35:51;6.60;99.90
4962;DHT22;2496;52.468;13.342;2023-04-01T17:38:34;6.50;99.90
4962;DHT22;2496;52.468;13.342;2023-04-01T17:41:08;6.50;99.90
4962;DHT22;2496;52.468;13.342;2023-04-01T17:43:45;6.50;99.90
4962;DHT22;2496;52.468;13.342;2023-04-01T17:46:31;6.50;99.90